createdAt,value
2022-12-16T00:00:10.123Z,992.75
2022-12-16T00:01:10.273Z,992.70
2022-12-16T00:02:10.100Z,992.72
2022-12-16T00:03:10.241Z,992.70
2022-12-16T00:04:10.054Z,992.75
2022-12-16T00:05:10.070Z,992.74
2022-12-16T00:06:10.038Z,992.67
2022-12-16T00:07:10.016Z,992.72
2022-12-16T00:08:10.003Z,992.69
2022-12-16T00:09:09.991Z,992.69
2022-12-16T00:10:09.983Z,992.64
2022-12-16T00:11:09.994Z,992.69
2022-12-16T00:12:09.966Z,992.71
2022-12-16T00:13:10.759Z,992.69
2022-12-16T00:14:09.933Z,992.63
2022-12-16T00:15:09.927Z,992.72
2022-12-16T00:16:09.992Z,992.70
2022-12-16T00:17:09.916Z,992.70
2022-12-16T00:18:09.884Z,992.70
2022-12-16T00:19:09.871Z,992.74
2022-12-16T00:20:09.865Z,992.77
2022-12-16T00:21:09.867Z,992.72
2022-12-16T00:22:09.841Z,992.74
2022-12-16T00:23:09.826Z,992.75
2022-12-16T00:24:09.822Z,992.74
2022-12-16T00:25:09.800Z,992.74
2022-12-16T00:26:09.801Z,992.73
2022-12-16T00:27:09.772Z,992.71
2022-12-16T00:28:09.762Z,992.71
2022-12-16T00:29:09.765Z,992.73
2022-12-16T00:30:09.735Z,992.74
2022-12-16T00:31:09.786Z,992.78
2022-12-16T00:32:09.717Z,992.78
2022-12-16T00:33:09.718Z,992.72
2022-12-16T00:34:09.692Z,992.71
2022-12-16T00:35:09.691Z,992.79
2022-12-16T00:36:09.681Z,992.83
2022-12-16T00:37:09.659Z,992.77
2022-12-16T00:38:09.645Z,992.78
2022-12-16T00:39:09.630Z,992.78
2022-12-16T00:40:09.622Z,992.78
2022-12-16T00:41:09.636Z,992.83
2022-12-16T00:42:09.602Z,992.79
2022-12-16T00:43:09.583Z,992.81
2022-12-16T00:44:09.572Z,992.74
2022-12-16T00:45:09.683Z,992.75
2022-12-16T00:46:09.736Z,992.75
2022-12-16T00:47:09.573Z,992.75
2022-12-16T00:48:09.523Z,992.76
2022-12-16T00:49:09.543Z,992.73
2022-12-16T00:50:09.509Z,992.80
2022-12-16T00:51:09.531Z,992.76
2022-12-16T00:52:09.473Z,992.75
2022-12-16T00:53:09.515Z,992.79
2022-12-16T00:54:09.498Z,992.76
2022-12-16T00:55:09.439Z,992.70
2022-12-16T00:56:09.443Z,992.73
2022-12-16T00:57:09.427Z,992.75
2022-12-16T00:58:09.398Z,992.71
2022-12-16T00:59:09.392Z,992.71
2022-12-16T01:00:09.502Z,992.71
2022-12-16T01:01:09.474Z,992.76
2022-12-16T01:02:09.537Z,992.78
2022-12-16T01:03:09.529Z,992.84
2022-12-16T01:04:09.333Z,992.82
2022-12-16T01:05:09.386Z,992.89
2022-12-16T01:06:09.333Z,992.83
2022-12-16T01:07:09.309Z,992.85
2022-12-16T01:08:09.312Z,992.86
2022-12-16T01:09:09.274Z,992.90
2022-12-16T01:10:09.256Z,992.94
2022-12-16T01:11:09.243Z,992.88
2022-12-16T01:12:09.292Z,992.90
2022-12-16T01:13:09.225Z,992.99
2022-12-16T01:14:09.210Z,992.92
2022-12-16T01:15:09.199Z,992.97
2022-12-16T01:16:09.328Z,993.00
2022-12-16T01:17:09.202Z,993.01
2022-12-16T01:18:09.185Z,993.04
2022-12-16T01:19:09.159Z,993.00
2022-12-16T01:20:09.136Z,993.05
2022-12-16T01:21:09.140Z,993.03
2022-12-16T01:22:09.129Z,993.06
2022-12-16T01:23:09.115Z,993.02
2022-12-16T01:24:09.122Z,993.08
2022-12-16T01:25:09.082Z,993.13
2022-12-16T01:26:09.077Z,993.12
2022-12-16T01:27:09.072Z,993.08
2022-12-16T01:28:09.044Z,993.13
2022-12-16T01:29:09.029Z,993.12
2022-12-16T01:30:09.102Z,993.18
2022-12-16T01:31:09.006Z,993.16
2022-12-16T01:32:09.089Z,993.19
2022-12-16T01:33:08.980Z,993.15
2022-12-16T01:34:08.981Z,993.17
2022-12-16T01:35:29.540Z,993.21
2022-12-16T01:36:08.996Z,993.21
2022-12-16T01:37:08.970Z,993.19
2022-12-16T01:38:08.920Z,993.24
2022-12-16T01:39:08.917Z,993.28
2022-12-16T01:40:08.894Z,993.22
2022-12-16T01:41:08.895Z,993.27
2022-12-16T01:42:08.888Z,993.27
2022-12-16T01:43:08.862Z,993.29
2022-12-16T01:44:08.847Z,993.33
2022-12-16T01:45:08.833Z,993.34
2022-12-16T01:46:08.895Z,993.29
2022-12-16T01:47:08.831Z,993.39
2022-12-16T01:48:08.795Z,993.37
2022-12-16T01:49:08.795Z,993.39
2022-12-16T01:50:08.775Z,993.38
2022-12-16T01:51:08.763Z,993.38
2022-12-16T01:52:08.770Z,993.43
2022-12-16T01:53:08.754Z,993.46
2022-12-16T01:54:08.730Z,993.42
2022-12-16T01:55:08.724Z,993.37
2022-12-16T01:56:08.703Z,993.39
2022-12-16T01:57:08.712Z,993.33
2022-12-16T01:58:08.679Z,993.40
2022-12-16T01:59:08.674Z,993.41
2022-12-16T02:00:08.653Z,993.37
2022-12-16T02:01:08.754Z,993.35
2022-12-16T02:02:08.884Z,993.37
2022-12-16T02:03:08.661Z,993.37
2022-12-16T02:04:08.606Z,993.39
2022-12-16T02:05:08.637Z,993.42
2022-12-16T02:06:08.614Z,993.44
2022-12-16T02:07:08.614Z,993.45
2022-12-16T02:08:08.573Z,993.45
2022-12-16T02:09:08.592Z,993.40
2022-12-16T02:10:08.538Z,993.44
2022-12-16T02:11:08.522Z,993.45
2022-12-16T02:12:08.579Z,993.42
2022-12-16T02:13:08.546Z,993.37
2022-12-16T02:14:08.486Z,993.38
2022-12-16T02:15:08.476Z,993.36
2022-12-16T02:16:11.675Z,993.37
2022-12-16T02:17:08.560Z,993.39
2022-12-16T02:18:08.455Z,993.34
2022-12-16T02:19:08.423Z,993.30
2022-12-16T02:20:08.436Z,993.30
2022-12-16T02:21:08.414Z,993.34
2022-12-16T02:22:08.393Z,993.31
2022-12-16T02:23:09.126Z,993.36
2022-12-16T02:24:08.382Z,993.32
2022-12-16T02:25:08.374Z,993.34
2022-12-16T02:26:08.343Z,993.36
2022-12-16T02:27:08.337Z,993.32
2022-12-16T02:28:08.332Z,993.38
2022-12-16T02:29:08.311Z,993.37
2022-12-16T02:30:08.291Z,993.36
2022-12-16T02:31:08.345Z,993.40
2022-12-16T02:32:08.269Z,993.40
2022-12-16T02:33:08.280Z,993.32
2022-12-16T02:34:08.243Z,993.35
2022-12-16T02:35:08.235Z,993.38
2022-12-16T02:36:08.225Z,993.35
2022-12-16T02:37:08.207Z,993.34
2022-12-16T02:38:08.215Z,993.31
2022-12-16T02:39:08.191Z,993.29
2022-12-16T02:40:08.172Z,993.31
2022-12-16T02:41:08.293Z,993.25
2022-12-16T02:42:08.150Z,993.22
2022-12-16T02:43:08.154Z,993.25
2022-12-16T02:44:08.125Z,993.22
2022-12-16T02:45:08.127Z,993.23
2022-12-16T02:46:08.208Z,993.21
2022-12-16T02:47:08.089Z,993.18
2022-12-16T02:48:08.094Z,993.17
2022-12-16T02:49:08.071Z,993.14
2022-12-16T02:50:08.058Z,993.22
2022-12-16T02:51:08.044Z,993.23
2022-12-16T02:52:08.026Z,993.20
2022-12-16T02:53:08.032Z,993.23
2022-12-16T02:54:08.009Z,993.21
2022-12-16T02:55:07.994Z,993.21
2022-12-16T02:56:07.979Z,993.23
2022-12-16T02:57:07.984Z,993.22
2022-12-16T02:58:07.998Z,993.23
2022-12-16T02:59:07.944Z,993.25
2022-12-16T03:00:07.965Z,993.24
2022-12-16T03:01:08.051Z,993.25
2022-12-16T03:02:08.117Z,993.18
2022-12-16T03:03:08.148Z,993.21
2022-12-16T03:06:34.615Z,993.27
2022-12-16T03:07:31.861Z,993.33
2022-12-16T03:08:31.868Z,993.23
2022-12-16T03:09:31.828Z,993.26
2022-12-16T03:10:31.814Z,993.32
2022-12-16T03:11:31.801Z,993.37
2022-12-16T03:12:31.821Z,993.26
2022-12-16T03:13:32.051Z,993.33
2022-12-16T03:14:31.769Z,993.30
2022-12-16T03:15:31.753Z,993.30
2022-12-16T03:16:31.905Z,993.30
2022-12-16T03:17:31.730Z,993.30
2022-12-16T03:18:31.738Z,993.31
2022-12-16T03:19:31.708Z,993.35
2022-12-16T03:20:31.700Z,993.37
2022-12-16T03:21:31.681Z,993.37
2022-12-16T03:22:31.672Z,993.36
2022-12-16T03:23:31.947Z,993.36
2022-12-16T03:24:31.649Z,993.33
2022-12-16T03:25:31.634Z,993.33
2022-12-16T03:26:31.621Z,993.34
2022-12-16T03:27:31.610Z,993.39
2022-12-16T03:28:31.635Z,993.39
2022-12-16T03:29:31.587Z,993.42
2022-12-16T03:30:31.622Z,993.43
2022-12-16T03:31:31.559Z,993.51
2022-12-16T03:32:31.555Z,993.45
2022-12-16T03:33:31.956Z,993.43
2022-12-16T03:34:31.580Z,993.41
2022-12-16T03:35:31.526Z,993.38
2022-12-16T03:36:31.499Z,993.39
2022-12-16T03:37:31.511Z,993.38
2022-12-16T03:38:31.490Z,993.49
2022-12-16T03:39:31.492Z,993.47
2022-12-16T03:40:31.454Z,993.44
2022-12-16T03:41:31.438Z,993.45
2022-12-16T03:42:31.426Z,993.40
2022-12-16T03:43:31.917Z,993.41
2022-12-16T03:44:31.484Z,993.48
2022-12-16T03:45:31.388Z,993.46
2022-12-16T03:46:31.399Z,993.50
2022-12-16T03:47:31.379Z,993.49
2022-12-16T03:48:31.652Z,993.49
2022-12-16T03:49:31.348Z,993.58
2022-12-16T03:50:31.335Z,993.57
2022-12-16T03:51:31.314Z,993.52
2022-12-16T03:52:31.332Z,993.54
2022-12-16T03:53:31.627Z,993.62
2022-12-16T03:54:31.281Z,993.62
2022-12-16T03:55:31.291Z,993.59
2022-12-16T03:56:31.254Z,993.66
2022-12-16T03:57:31.294Z,993.65
2022-12-16T03:58:31.242Z,993.69
2022-12-16T03:59:31.214Z,993.66
2022-12-16T04:00:31.265Z,993.70
2022-12-16T04:01:31.317Z,993.72
2022-12-16T04:02:31.373Z,993.64
2022-12-16T04:03:31.653Z,993.66
2022-12-16T04:04:31.155Z,993.73
2022-12-16T04:05:31.179Z,993.73
2022-12-16T04:06:31.138Z,993.71
2022-12-16T04:07:31.121Z,993.76
2022-12-16T04:08:31.129Z,993.77
2022-12-16T04:09:31.093Z,993.74
2022-12-16T04:10:31.082Z,993.73
2022-12-16T04:11:31.086Z,993.79
2022-12-16T04:12:31.059Z,993.75
2022-12-16T04:13:31.502Z,993.76
2022-12-16T04:14:31.038Z,993.76
2022-12-16T04:15:31.081Z,993.74
2022-12-16T04:16:31.032Z,993.75
2022-12-16T04:17:31.004Z,993.75
2022-12-16T04:18:31.600Z,993.77
2022-12-16T04:19:30.994Z,993.77
2022-12-16T04:20:30.961Z,993.76
2022-12-16T04:21:30.963Z,993.83
2022-12-16T04:22:30.934Z,993.78
2022-12-16T04:23:31.364Z,993.77
2022-12-16T04:24:30.926Z,993.77
2022-12-16T04:25:30.897Z,993.76
2022-12-16T04:26:30.886Z,993.82
2022-12-16T04:27:30.894Z,993.81
2022-12-16T04:28:30.874Z,993.89
2022-12-16T04:29:30.879Z,993.83
2022-12-16T04:30:30.840Z,993.83
2022-12-16T04:31:30.867Z,993.83
2022-12-16T04:32:30.840Z,993.86
2022-12-16T04:33:31.282Z,993.87
2022-12-16T04:34:30.806Z,993.85
2022-12-16T04:35:30.772Z,993.89
2022-12-16T04:36:30.762Z,993.83
2022-12-16T04:37:30.756Z,993.90
2022-12-16T04:38:30.737Z,993.91
2022-12-16T04:39:30.747Z,993.89
2022-12-16T04:40:30.759Z,993.90
2022-12-16T04:41:30.701Z,993.91
2022-12-16T04:42:30.689Z,993.85
2022-12-16T04:43:30.992Z,993.94
2022-12-16T04:44:30.684Z,993.90
2022-12-16T04:45:30.656Z,993.89
2022-12-16T04:46:30.707Z,993.95
2022-12-16T04:47:30.732Z,993.97
2022-12-16T04:48:30.651Z,993.95
2022-12-16T04:49:30.627Z,993.97
2022-12-16T04:50:30.606Z,993.96
2022-12-16T04:51:30.578Z,994.00
2022-12-16T04:52:30.567Z,994.04
2022-12-16T04:53:30.997Z,994.03
2022-12-16T04:54:30.579Z,994.06
2022-12-16T04:55:30.549Z,994.08
2022-12-16T04:56:30.523Z,994.08
2022-12-16T04:57:30.506Z,994.08
2022-12-16T04:58:30.497Z,994.08
2022-12-16T04:59:30.482Z,994.08
2022-12-16T05:00:30.488Z,994.11
2022-12-16T05:01:30.655Z,994.09
2022-12-16T05:02:30.627Z,994.11
2022-12-16T05:03:30.894Z,994.08
2022-12-16T05:04:30.444Z,994.15
2022-12-16T05:05:30.425Z,994.21
2022-12-16T05:06:30.396Z,994.15
2022-12-16T05:07:36.322Z,994.29
2022-12-16T05:08:31.379Z,994.21
2022-12-16T05:09:30.365Z,994.32
2022-12-16T05:10:30.376Z,994.31
2022-12-16T05:11:30.348Z,994.30
2022-12-16T05:12:30.321Z,994.33
2022-12-16T05:13:30.629Z,994.31
2022-12-16T05:14:30.301Z,994.34
2022-12-16T05:15:30.300Z,994.35
2022-12-16T05:16:30.354Z,994.30
2022-12-16T05:17:30.264Z,994.43
2022-12-16T05:18:30.252Z,994.39
2022-12-16T05:19:31.805Z,994.47
2022-12-16T05:20:30.264Z,994.47
2022-12-16T05:21:30.220Z,994.47
2022-12-16T05:22:30.218Z,994.50
2022-12-16T05:23:30.709Z,994.48
2022-12-16T05:24:30.181Z,994.49
2022-12-16T05:25:30.184Z,994.59
2022-12-16T05:26:30.154Z,994.55
2022-12-16T05:27:30.145Z,994.65
2022-12-16T05:28:30.130Z,994.61
2022-12-16T05:29:30.133Z,994.67
2022-12-16T05:30:33.614Z,994.66
2022-12-16T05:31:30.140Z,994.64
2022-12-16T05:32:30.079Z,994.71
2022-12-16T05:33:30.423Z,994.70
2022-12-16T05:34:30.058Z,994.78
2022-12-16T05:35:30.085Z,994.75
2022-12-16T05:36:30.055Z,994.75
2022-12-16T05:37:30.021Z,994.88
2022-12-16T05:38:30.016Z,994.80
2022-12-16T05:39:30.000Z,994.85
2022-12-16T05:40:30.000Z,994.88
2022-12-16T05:41:29.968Z,994.90
2022-12-16T05:42:29.962Z,994.88
2022-12-16T05:43:30.230Z,994.88
2022-12-16T05:44:29.933Z,994.86
2022-12-16T05:45:29.938Z,994.87
2022-12-16T05:46:30.027Z,994.88
2022-12-16T05:47:29.904Z,994.85
2022-12-16T05:48:29.887Z,994.91
2022-12-16T05:49:29.873Z,994.86
2022-12-16T05:50:29.878Z,994.95
2022-12-16T05:51:29.848Z,994.97
2022-12-16T05:52:29.869Z,994.95
2022-12-16T05:53:30.034Z,995.06
2022-12-16T05:54:29.816Z,994.97
2022-12-16T05:55:33.902Z,995.01
2022-12-16T05:56:29.791Z,994.99
2022-12-16T05:57:29.782Z,995.03
2022-12-16T05:58:29.768Z,995.02
2022-12-16T05:59:29.760Z,995.06
2022-12-16T06:00:29.777Z,995.05
2022-12-16T06:01:29.909Z,995.04
2022-12-16T06:02:29.940Z,995.13
2022-12-16T06:03:29.968Z,995.06
2022-12-16T06:04:29.699Z,995.18
2022-12-16T06:05:29.692Z,995.22
2022-12-16T06:06:29.689Z,995.22
2022-12-16T06:07:29.660Z,995.26
2022-12-16T06:08:29.674Z,995.31
2022-12-16T06:09:29.641Z,995.29
2022-12-16T06:10:29.625Z,995.33
2022-12-16T06:11:29.632Z,995.29
2022-12-16T06:12:29.603Z,995.28
2022-12-16T06:13:29.874Z,995.34
2022-12-16T06:14:29.612Z,995.33
2022-12-16T06:15:29.575Z,995.33
2022-12-16T06:16:29.622Z,995.34
2022-12-16T06:17:29.544Z,995.32
2022-12-16T06:18:29.528Z,995.29
2022-12-16T06:19:29.520Z,995.31
2022-12-16T06:20:29.509Z,995.33
2022-12-16T06:21:29.514Z,995.34
2022-12-16T06:22:29.481Z,995.35
2022-12-16T06:23:29.479Z,995.39
2022-12-16T06:24:29.480Z,995.50
2022-12-16T06:25:29.457Z,995.51
2022-12-16T06:26:29.453Z,995.55
2022-12-16T06:27:29.430Z,995.51
2022-12-16T06:28:29.414Z,995.46
2022-12-16T06:29:29.402Z,995.46
2022-12-16T06:30:29.394Z,995.52
2022-12-16T06:31:29.456Z,995.51
2022-12-16T06:32:29.377Z,995.56
2022-12-16T06:33:29.569Z,995.52
2022-12-16T06:34:29.345Z,995.54
2022-12-16T06:35:29.330Z,995.57
2022-12-16T06:36:29.339Z,995.69
2022-12-16T06:37:29.314Z,995.69
2022-12-16T06:38:29.299Z,995.67
2022-12-16T06:39:29.290Z,995.75
2022-12-16T06:40:29.293Z,995.73
2022-12-16T06:41:29.287Z,995.81
2022-12-16T06:42:29.251Z,995.78
2022-12-16T06:43:29.421Z,995.77
2022-12-16T06:44:29.226Z,995.77
2022-12-16T06:45:34.513Z,995.86
2022-12-16T06:46:29.287Z,995.88
2022-12-16T06:47:29.189Z,995.88
2022-12-16T06:48:29.178Z,995.92
2022-12-16T06:49:29.171Z,995.93
2022-12-16T06:50:29.155Z,995.95
2022-12-16T06:51:29.162Z,995.89
2022-12-16T06:52:29.129Z,995.98
2022-12-16T06:53:29.399Z,995.98
2022-12-16T06:54:29.112Z,996.00
2022-12-16T06:55:29.100Z,996.03
2022-12-16T06:56:29.125Z,995.97
2022-12-16T06:57:29.075Z,995.98
2022-12-16T06:58:29.061Z,996.03
2022-12-16T06:59:29.047Z,996.06
2022-12-16T07:00:29.036Z,996.05
2022-12-16T07:01:29.199Z,996.02
2022-12-16T07:02:29.091Z,996.14
2022-12-16T07:03:34.096Z,996.09
2022-12-16T07:04:28.993Z,996.21
2022-12-16T07:05:28.977Z,996.16
2022-12-16T07:06:28.986Z,996.16
2022-12-16T07:07:28.968Z,996.23
2022-12-16T07:08:28.944Z,996.16
2022-12-16T07:09:28.936Z,996.13
2022-12-16T07:10:28.919Z,996.12
2022-12-16T07:11:28.915Z,996.13
2022-12-16T07:12:28.939Z,996.23
2022-12-16T07:13:29.153Z,996.22
2022-12-16T07:14:28.872Z,996.25
2022-12-16T07:15:28.866Z,996.24
2022-12-16T07:16:28.968Z,996.21
2022-12-16T07:17:28.860Z,996.30
2022-12-16T07:18:28.828Z,996.32
2022-12-16T07:19:28.814Z,996.32
2022-12-16T07:20:28.884Z,996.33
2022-12-16T07:21:28.792Z,996.36
2022-12-16T07:22:28.798Z,996.33
2022-12-16T07:23:28.769Z,996.39
2022-12-16T07:24:28.751Z,996.41
2022-12-16T07:25:28.743Z,996.38
2022-12-16T07:26:28.731Z,996.42
2022-12-16T07:27:28.735Z,996.51
2022-12-16T07:28:28.723Z,996.47
2022-12-16T07:29:28.701Z,996.48
2022-12-16T07:30:28.723Z,996.48
2022-12-16T07:31:28.726Z,996.50
2022-12-16T07:32:28.675Z,996.49
2022-12-16T07:33:28.651Z,996.57
2022-12-16T07:34:28.636Z,996.54
2022-12-16T07:35:28.628Z,996.54
2022-12-16T07:36:28.619Z,996.55
2022-12-16T07:37:28.616Z,996.59
2022-12-16T07:38:28.590Z,996.61
2022-12-16T07:39:28.579Z,996.67
2022-12-16T07:40:28.646Z,996.68
2022-12-16T07:41:28.553Z,996.69
2022-12-16T07:42:28.559Z,996.68
2022-12-16T07:43:28.532Z,996.75
2022-12-16T07:44:28.541Z,996.78
2022-12-16T07:45:28.655Z,996.77
2022-12-16T07:46:28.591Z,996.74
2022-12-16T07:47:28.504Z,996.78
2022-12-16T07:48:28.486Z,996.81
2022-12-16T07:49:28.465Z,996.86
2022-12-16T07:50:28.506Z,996.92
2022-12-16T07:51:28.438Z,996.96
2022-12-16T07:52:28.449Z,997.03
2022-12-16T07:53:31.223Z,997.00
2022-12-16T07:54:28.400Z,997.04
2022-12-16T07:55:28.393Z,997.01
2022-12-16T07:56:28.379Z,997.04
2022-12-16T07:57:28.381Z,996.99
2022-12-16T07:58:28.360Z,997.04
2022-12-16T07:59:28.345Z,997.07
2022-12-16T08:00:28.433Z,997.05
2022-12-16T08:01:28.438Z,997.12
2022-12-16T08:02:28.483Z,997.10
2022-12-16T08:03:28.389Z,997.14
2022-12-16T08:04:28.285Z,997.17
2022-12-16T08:05:28.276Z,997.15
2022-12-16T08:06:28.256Z,997.24
2022-12-16T08:07:28.261Z,997.24
2022-12-16T08:08:28.236Z,997.24
2022-12-16T08:09:28.222Z,997.29
2022-12-16T08:10:28.263Z,997.28
2022-12-16T08:11:28.197Z,997.32
2022-12-16T08:12:28.201Z,997.33
2022-12-16T08:13:28.182Z,997.41
2022-12-16T08:14:28.164Z,997.33
2022-12-16T08:15:28.152Z,997.42
2022-12-16T08:16:28.264Z,997.40
2022-12-16T08:17:28.148Z,997.42
2022-12-16T08:18:28.117Z,997.40
2022-12-16T08:19:28.104Z,997.39
2022-12-16T08:20:28.090Z,997.41
2022-12-16T08:21:28.084Z,997.49
2022-12-16T08:22:28.091Z,997.60
2022-12-16T08:23:28.060Z,997.71
2022-12-16T08:24:28.046Z,997.66
2022-12-16T08:25:28.032Z,997.67
2022-12-16T08:26:28.025Z,997.60
2022-12-16T08:27:28.009Z,997.58
2022-12-16T08:28:28.017Z,997.57
2022-12-16T08:29:43.624Z,997.56
2022-12-16T08:30:28.124Z,997.54
2022-12-16T08:31:28.020Z,997.49
2022-12-16T08:32:27.989Z,997.53
2022-12-16T08:33:27.952Z,997.52
2022-12-16T08:34:27.915Z,997.49
2022-12-16T08:35:27.906Z,997.37
2022-12-16T08:36:27.893Z,997.55
2022-12-16T08:37:27.881Z,997.50
2022-12-16T08:38:27.885Z,997.42
2022-12-16T08:39:27.852Z,997.34
2022-12-16T08:40:36.359Z,997.42
2022-12-16T08:41:28.833Z,997.54
2022-12-16T08:42:27.817Z,997.55
2022-12-16T08:43:27.827Z,997.66
2022-12-16T08:44:27.789Z,997.61
2022-12-16T08:45:27.780Z,997.60
2022-12-16T08:46:27.800Z,997.57
2022-12-16T08:47:27.749Z,997.62
2022-12-16T08:48:27.844Z,997.66
2022-12-16T08:49:27.731Z,997.73
2022-12-16T08:50:27.708Z,997.70
2022-12-16T08:51:27.698Z,997.78
2022-12-16T08:52:27.680Z,997.70
2022-12-16T08:53:27.686Z,997.77
2022-12-16T08:54:27.656Z,997.82
2022-12-16T08:55:29.653Z,997.82
2022-12-16T08:56:27.628Z,997.78
2022-12-16T08:57:27.618Z,997.84
2022-12-16T08:58:27.620Z,997.87
2022-12-16T08:59:27.590Z,997.89
2022-12-16T09:00:27.576Z,997.95
2022-12-16T09:01:27.684Z,997.98
2022-12-16T09:02:27.845Z,997.99
2022-12-16T09:03:27.613Z,998.00
2022-12-16T09:04:27.551Z,998.03
2022-12-16T09:05:27.513Z,998.08
2022-12-16T09:06:27.499Z,998.07
2022-12-16T09:07:27.495Z,998.09
2022-12-16T09:08:27.488Z,998.04
2022-12-16T09:09:27.469Z,998.05
2022-12-16T09:10:27.444Z,998.07
2022-12-16T09:11:27.429Z,998.08
2022-12-16T09:12:27.414Z,998.13
2022-12-16T09:13:27.421Z,998.19
2022-12-16T09:14:27.387Z,998.16
2022-12-16T09:15:27.414Z,998.16
2022-12-16T09:16:27.437Z,998.16
2022-12-16T09:17:27.347Z,998.24
2022-12-16T09:18:27.353Z,998.23
2022-12-16T09:19:27.326Z,998.25
2022-12-16T09:20:27.325Z,998.25
2022-12-16T09:21:31.729Z,998.28
2022-12-16T09:22:27.288Z,998.34
2022-12-16T09:23:27.289Z,998.29
2022-12-16T09:24:27.256Z,998.23
2022-12-16T09:25:27.242Z,998.33
2022-12-16T09:26:27.329Z,998.29
2022-12-16T09:27:27.219Z,998.30
2022-12-16T09:28:27.218Z,998.29
2022-12-16T09:29:27.190Z,998.25
2022-12-16T09:30:27.176Z,998.30
2022-12-16T09:31:27.264Z,998.32
2022-12-16T09:32:27.146Z,998.33
2022-12-16T09:33:27.167Z,998.36
2022-12-16T09:34:27.123Z,998.35
2022-12-16T09:35:27.111Z,998.46
2022-12-16T09:36:27.123Z,998.39
2022-12-16T09:37:27.088Z,998.44
2022-12-16T09:38:27.072Z,998.38
2022-12-16T09:39:27.074Z,998.39
2022-12-16T09:40:27.041Z,998.37
2022-12-16T09:41:27.042Z,998.38
2022-12-16T09:42:27.014Z,998.41
2022-12-16T09:43:27.011Z,998.47
2022-12-16T09:44:27.008Z,998.46
2022-12-16T09:45:26.974Z,998.52
2022-12-16T09:46:27.052Z,998.45
2022-12-16T09:47:26.959Z,998.54
2022-12-16T09:48:26.934Z,998.44
2022-12-16T09:49:26.942Z,998.30
2022-12-16T09:50:26.907Z,998.45
2022-12-16T09:51:26.895Z,998.51
2022-12-16T09:52:26.913Z,998.54
2022-12-16T09:53:26.866Z,998.53
2022-12-16T09:54:26.872Z,998.57
2022-12-16T09:55:26.842Z,998.50
2022-12-16T09:56:26.827Z,998.53
2022-12-16T09:57:26.824Z,998.45
2022-12-16T09:58:26.802Z,998.49
2022-12-16T09:59:26.809Z,998.44
2022-12-16T10:00:26.771Z,998.54
2022-12-16T10:01:26.882Z,998.58
2022-12-16T10:02:26.957Z,998.52
2022-12-16T10:03:26.856Z,998.52
2022-12-16T10:04:26.789Z,998.57
2022-12-16T10:05:26.706Z,998.61
2022-12-16T10:06:26.761Z,998.54
2022-12-16T10:07:26.681Z,998.60
2022-12-16T10:08:26.694Z,998.54
2022-12-16T10:09:26.668Z,998.47
2022-12-16T10:10:26.641Z,998.54
2022-12-16T10:11:26.625Z,998.55
2022-12-16T10:12:26.616Z,998.57
2022-12-16T10:13:26.597Z,998.62
2022-12-16T10:14:26.607Z,998.46
2022-12-16T10:15:26.571Z,998.47
2022-12-16T10:16:26.640Z,998.43
2022-12-16T10:17:26.546Z,998.25
2022-12-16T10:18:26.601Z,998.13
2022-12-16T10:19:26.536Z,997.94
2022-12-16T10:20:26.511Z,998.03
2022-12-16T10:21:26.499Z,998.14
2022-12-16T10:22:26.496Z,998.46
2022-12-16T10:23:26.466Z,998.46
2022-12-16T10:24:26.509Z,998.55
2022-12-16T10:25:26.445Z,998.46
2022-12-16T10:26:26.430Z,998.51
2022-12-16T10:27:26.413Z,998.55
2022-12-16T10:28:26.400Z,998.54
2022-12-16T10:29:26.405Z,998.44
2022-12-16T10:30:26.375Z,998.50
2022-12-16T10:31:31.356Z,998.50
2022-12-16T10:32:26.348Z,998.26
2022-12-16T10:33:26.333Z,998.51
2022-12-16T10:34:26.335Z,998.52
2022-12-16T10:35:26.303Z,998.43
2022-12-16T10:36:26.295Z,998.26
2022-12-16T10:37:26.279Z,998.47
2022-12-16T10:38:26.264Z,998.46
2022-12-16T10:39:26.267Z,998.46
2022-12-16T10:40:26.260Z,998.53
2022-12-16T10:41:26.226Z,998.53
2022-12-16T10:42:26.213Z,998.53
2022-12-16T10:43:26.196Z,998.55
2022-12-16T10:44:26.201Z,998.49
2022-12-16T10:45:26.169Z,998.44
2022-12-16T10:46:26.201Z,998.48
2022-12-16T10:47:26.145Z,998.37
2022-12-16T10:48:26.135Z,998.50
2022-12-16T10:49:26.193Z,998.50
2022-12-16T10:50:26.125Z,998.41
2022-12-16T10:51:26.093Z,998.46
2022-12-16T10:52:26.085Z,998.47
2022-12-16T10:53:26.079Z,998.53
2022-12-16T10:54:26.056Z,998.59
2022-12-16T10:55:26.062Z,998.66
2022-12-16T10:56:26.052Z,998.53
2022-12-16T10:57:26.017Z,998.53
2022-12-16T10:58:26.002Z,998.65
2022-12-16T10:59:25.985Z,998.59
2022-12-16T11:00:25.993Z,998.65
2022-12-16T11:01:26.069Z,998.56
2022-12-16T11:02:26.183Z,998.64
2022-12-16T11:03:26.093Z,998.66
2022-12-16T11:04:25.979Z,998.65
2022-12-16T11:05:25.920Z,998.71
2022-12-16T11:06:25.892Z,998.67
2022-12-16T11:07:25.882Z,998.68
2022-12-16T11:08:25.869Z,998.72
2022-12-16T11:09:25.853Z,998.61
2022-12-16T11:10:25.868Z,998.64
2022-12-16T11:11:25.834Z,998.58
2022-12-16T11:12:25.837Z,998.49
2022-12-16T11:13:25.804Z,998.48
2022-12-16T11:14:25.789Z,998.60
2022-12-16T11:15:29.789Z,998.65
2022-12-16T11:16:25.854Z,998.66
2022-12-16T11:17:25.781Z,998.73
2022-12-16T11:18:25.742Z,998.64
2022-12-16T11:19:25.725Z,998.73
2022-12-16T11:20:25.729Z,998.67
2022-12-16T11:21:25.698Z,998.63
2022-12-16T11:22:25.690Z,998.71
2022-12-16T11:23:25.672Z,998.62
2022-12-16T11:24:25.657Z,998.54
2022-12-16T11:25:25.657Z,998.62
2022-12-16T11:26:25.633Z,998.65
2022-12-16T11:27:25.617Z,998.68
2022-12-16T11:28:25.650Z,998.56
2022-12-16T11:29:25.594Z,998.68
2022-12-16T11:30:25.627Z,998.60
2022-12-16T11:31:25.724Z,998.65
2022-12-16T11:32:25.553Z,998.72
2022-12-16T11:33:25.535Z,998.66
2022-12-16T11:34:25.526Z,998.50
2022-12-16T11:35:25.529Z,998.51
2022-12-16T11:36:25.507Z,998.64
2022-12-16T11:37:25.481Z,998.62
2022-12-16T11:38:25.479Z,998.70
2022-12-16T11:39:25.459Z,998.70
2022-12-16T11:40:25.477Z,998.72
2022-12-16T11:41:25.432Z,998.70
2022-12-16T11:42:25.424Z,998.68
2022-12-16T11:43:25.403Z,998.66
2022-12-16T11:44:25.415Z,998.71
2022-12-16T11:45:25.399Z,998.60
2022-12-16T11:46:25.420Z,998.64
2022-12-16T11:47:25.354Z,998.68
2022-12-16T11:48:25.338Z,998.72
2022-12-16T11:49:25.809Z,998.74
2022-12-16T11:50:25.330Z,998.71
2022-12-16T11:51:25.300Z,998.66
2022-12-16T11:52:40.702Z,998.75
2022-12-16T11:53:26.276Z,998.75
2022-12-16T11:54:25.265Z,998.71
2022-12-16T11:55:48.112Z,998.68
2022-12-16T11:56:25.329Z,998.73
2022-12-16T11:57:25.220Z,998.75
2022-12-16T11:58:25.210Z,998.69
2022-12-16T11:59:25.208Z,998.73
2022-12-16T12:00:25.228Z,998.69
2022-12-16T12:01:25.223Z,998.76
2022-12-16T12:02:25.221Z,998.76
2022-12-16T12:03:25.344Z,998.77
2022-12-16T12:04:25.183Z,998.78
2022-12-16T12:05:25.115Z,998.77
2022-12-16T12:06:25.122Z,998.83
2022-12-16T12:07:25.087Z,998.86
2022-12-16T12:08:25.080Z,998.83
2022-12-16T12:09:25.066Z,998.86
2022-12-16T12:10:25.053Z,998.86
2022-12-16T12:11:25.054Z,998.79
2022-12-16T12:12:25.030Z,998.82
2022-12-16T12:13:25.014Z,998.82
2022-12-16T12:14:25.000Z,998.80
2022-12-16T12:15:24.984Z,998.82
2022-12-16T12:16:25.109Z,998.80
2022-12-16T12:17:24.958Z,998.84
2022-12-16T12:18:24.947Z,998.86
2022-12-16T12:19:24.934Z,998.82
2022-12-16T12:20:24.925Z,998.83
2022-12-16T12:21:24.925Z,998.90
2022-12-16T12:22:24.894Z,998.93
2022-12-16T12:23:24.884Z,998.95
2022-12-16T12:24:24.870Z,998.88
2022-12-16T12:25:24.856Z,998.91
2022-12-16T12:26:25.126Z,998.91
2022-12-16T12:27:24.825Z,998.93
2022-12-16T12:28:24.813Z,998.93
2022-12-16T12:29:24.803Z,998.96
2022-12-16T12:30:24.788Z,998.90